Kingaroy, Australia
Current Conditions -  °F | °C
As of 2:00 PM on Sunday 26 Oct 2014 (Local Time) from YBOK Reporting Station
Clear Clear  
Wind Chill: 97°   Ceiling: Unl
Heat Index: 97°   Visibility: 6mi
Dew Point: 41°   Wind: 14mph
Humidity: 15%   Direction: 310°NW
Pressure: 29.88"   Gusts: NA
Location:  26.54°S, 151.84°E
Report Text: YBOK 260400Z AUTO 31012KT 9999 // NCD 36/05 Q1012
Loading
Personal Weather Stations






























Interactive Weather Map
Tropical Storm Tracking
New forecast layout! Learn more

10-Day Weather Forecast

Advertisements
Track Severe Weather on mobile